sensor_id;sensor_type;location;lat;lon;timestamp;pressure;altitude;pressure_sealevel;temperature;humidity
55347;BME280;41218;55.700;38.270;2023-02-04T00:04:19;99319.59;;;0.56;73.55
55347;BME280;41218;55.700;38.270;2023-02-04T00:09:19;99316.84;;;0.56;73.27
55347;BME280;41218;55.700;38.270;2023-02-04T00:14:20;99327.91;;;0.51;73.59
55347;BME280;41218;55.700;38.270;2023-02-04T00:19:21;99330.25;;;0.44;73.66
55347;BME280;41218;55.700;38.270;2023-02-04T00:24:22;99333.75;;;0.44;73.60
55347;BME280;41218;55.700;38.270;2023-02-04T00:29:23;99334.41;;;0.41;73.56
55347;BME280;41218;55.700;38.270;2023-02-04T00:34:23;99336.13;;;0.37;73.35
55347;BME280;41218;55.700;38.270;2023-02-04T00:39:24;99334.03;;;0.34;73.65
55347;BME280;41218;55.700;38.270;2023-02-04T00:44:24;99337.06;;;0.32;73.32
55347;BME280;41218;55.700;38.270;2023-02-04T00:49:25;99332.38;;;0.24;73.29
55347;BME280;41218;55.700;38.270;2023-02-04T00:54:26;99357.50;;;0.30;73.23
55347;BME280;41218;55.700;38.270;2023-02-04T00:59:26;99349.81;;;0.23;73.41
55347;BME280;41218;55.700;38.270;2023-02-04T01:04:27;99358.91;;;0.18;73.39
55347;BME280;41218;55.700;38.270;2023-02-04T01:09:28;99353.72;;;0.08;73.10
55347;BME280;41218;55.700;38.270;2023-02-04T01:14:29;99375.63;;;0.12;73.28
55347;BME280;41218;55.700;38.270;2023-02-04T01:19:29;99363.28;;;0.06;73.23
55347;BME280;41218;55.700;38.270;2023-02-04T01:24:30;99367.22;;;-0.01;73.46
55347;BME280;41218;55.700;38.270;2023-02-04T01:29:30;99367.22;;;-0.01;73.31
55347;BME280;41218;55.700;38.270;2023-02-04T01:34:31;99368.34;;;-0.02;73.40
55347;BME280;41218;55.700;38.270;2023-02-04T01:39:31;99370.56;;;-0.04;73.32
55347;BME280;41218;55.700;38.270;2023-02-04T01:44:33;99372.97;;;-0.02;73.35
55347;BME280;41218;55.700;38.270;2023-02-04T01:49:34;99383.84;;;-0.02;73.30
55347;BME280;41218;55.700;38.270;2023-02-04T01:54:34;99394.69;;;-0.02;73.48
55347;BME280;41218;55.700;38.270;2023-02-04T01:59:35;99381.25;;;-0.07;73.21
55347;BME280;41218;55.700;38.270;2023-02-04T02:04:40;99398.03;;;-0.05;73.22
55347;BME280;41218;55.700;38.270;2023-02-04T02:09:40;99396.88;;;-0.13;73.61
55347;BME280;41218;55.700;38.270;2023-02-04T02:14:41;99406.31;;;-0.10;73.01
55347;BME280;41218;55.700;38.270;2023-02-04T02:19:42;99411.72;;;-0.10;73.27
55347;BME280;41218;55.700;38.270;2023-02-04T02:24:43;99415.56;;;-0.11;73.23
55347;BME280;41218;55.700;38.270;2023-02-04T02:29:44;99415.38;;;-0.15;73.39
55347;BME280;41218;55.700;38.270;2023-02-04T02:34:44;99419.22;;;-0.16;73.44
55347;BME280;41218;55.700;38.270;2023-02-04T02:39:45;99420.81;;;-0.15;73.45
55347;BME280;41218;55.700;38.270;2023-02-04T02:44:47;99429.09;;;-0.20;73.27
55347;BME280;41218;55.700;38.270;2023-02-04T02:49:50;99435.41;;;-0.25;73.39
55347;BME280;41218;55.700;38.270;2023-02-04T02:54:51;99445.50;;;-0.25;73.47
55347;BME280;41218;55.700;38.270;2023-02-04T02:59:53;99445.63;;;-0.30;73.48
55347;BME280;41218;55.700;38.270;2023-02-04T03:04:56;99439.69;;;-0.32;73.60
55347;BME280;41218;55.700;38.270;2023-02-04T03:10:00;99456.97;;;-0.28;73.38
55347;BME280;41218;55.700;38.270;2023-02-04T03:15:02;99455.66;;;-0.31;73.25
55347;BME280;41218;55.700;38.270;2023-02-04T03:20:03;99451.44;;;-0.37;73.08
55347;BME280;41218;55.700;38.270;2023-02-04T03:25:04;99465.72;;;-0.31;73.78
55347;BME280;41218;55.700;38.270;2023-02-04T03:30:05;99463.63;;;-0.34;73.41
55347;BME280;41218;55.700;38.270;2023-02-04T03:35:07;99472.44;;;-0.29;73.27
55347;BME280;41218;55.700;38.270;2023-02-04T03:40:09;99478.72;;;-0.28;73.44
55347;BME280;41218;55.700;38.270;2023-02-04T03:45:10;99473.88;;;-0.31;73.46
55347;BME280;41218;55.700;38.270;2023-02-04T03:50:10;99479.31;;;-0.31;73.40
55347;BME280;41218;55.700;38.270;2023-02-04T03:55:13;99486.84;;;-0.28;73.41
55347;BME280;41218;55.700;38.270;2023-02-04T04:00:14;99484.94;;;-0.28;73.32
55347;BME280;41218;55.700;38.270;2023-02-04T04:05:14;99490.66;;;-0.29;73.40
55347;BME280;41218;55.700;38.270;2023-02-04T04:10:15;99491.78;;;-0.30;73.34
55347;BME280;41218;55.700;38.270;2023-02-04T04:15:15;99503.66;;;-0.26;73.48
55347;BME280;41218;55.700;38.270;2023-02-04T04:20:16;99496.31;;;-0.26;73.43
55347;BME280;41218;55.700;38.270;2023-02-04T04:25:17;99511.69;;;-0.21;73.71
55347;BME280;41218;55.700;38.270;2023-02-04T04:30:17;99517.59;;;-0.19;73.87
55347;BME280;41218;55.700;38.270;2023-02-04T04:35:18;99508.97;;;-0.21;73.91
55347;BME280;41218;55.700;38.270;2023-02-04T04:40:18;99510.59;;;-0.20;73.62
55347;BME280;41218;55.700;38.270;2023-02-04T04:45:19;99529.78;;;-0.16;73.75
55347;BME280;41218;55.700;38.270;2023-02-04T04:50:20;99532.19;;;-0.15;73.60
55347;BME280;41218;55.700;38.270;2023-02-04T04:55:21;99527.38;;;-0.18;73.49
55347;BME280;41218;55.700;38.270;2023-02-04T05:00:21;99532.69;;;-0.13;73.63
55347;BME280;41218;55.700;38.270;2023-02-04T05:05:22;99520.63;;;-0.21;73.31
55347;BME280;41218;55.700;38.270;2023-02-04T05:10:23;99539.25;;;-0.14;73.52
55347;BME280;41218;55.700;38.270;2023-02-04T05:15:23;99536.03;;;-0.16;73.71
55347;BME280;41218;55.700;38.270;2023-02-04T05:20:24;99536.81;;;-0.15;73.52
55347;BME280;41218;55.700;38.270;2023-02-04T05:25:24;99549.19;;;-0.09;73.24
55347;BME280;41218;55.700;38.270;2023-02-04T05:30:25;99547.41;;;-0.14;73.76
55347;BME280;41218;55.700;38.270;2023-02-04T05:35:25;99562.56;;;-0.13;73.38
55347;BME280;41218;55.700;38.270;2023-02-04T05:40:26;99568.31;;;-0.14;73.67
55347;BME280;41218;55.700;38.270;2023-02-04T05:45:26;99570.84;;;-0.18;73.64
55347;BME280;41218;55.700;38.270;2023-02-04T05:50:27;99591.53;;;-0.08;73.40
55347;BME280;41218;55.700;38.270;2023-02-04T05:55:27;99587.03;;;-0.13;73.37
55347;BME280;41218;55.700;38.270;2023-02-04T06:00:28;99602.41;;;-0.08;73.79
55347;BME280;41218;55.700;38.270;2023-02-04T06:05:28;99614.09;;;-0.08;73.56
55347;BME280;41218;55.700;38.270;2023-02-04T06:10:29;99608.06;;;-0.05;73.61
55347;BME280;41218;55.700;38.270;2023-02-04T06:15:29;99614.50;;;-0.01;73.80
55347;BME280;41218;55.700;38.270;2023-02-04T06:20:30;99626.38;;;0.04;73.74
55347;BME280;41218;55.700;38.270;2023-02-04T06:25:30;99631.00;;;0.03;73.50
55347;BME280;41218;55.700;38.270;2023-02-04T06:30:31;99637.75;;;0.06;73.38
55347;BME280;41218;55.700;38.270;2023-02-04T06:35:31;99639.66;;;0.05;73.60
55347;BME280;41218;55.700;38.270;2023-02-04T06:40:32;99656.06;;;0.14;73.34
55347;BME280;41218;55.700;38.270;2023-02-04T06:45:32;99650.81;;;0.17;73.72
55347;BME280;41218;55.700;38.270;2023-02-04T06:50:33;99667.06;;;0.23;73.37
55347;BME280;41218;55.700;38.270;2023-02-04T06:55:33;99665.63;;;0.25;73.60
55347;BME280;41218;55.700;38.270;2023-02-04T07:00:41;99662.13;;;0.25;73.93
55347;BME280;41218;55.700;38.270;2023-02-04T07:05:41;99668.44;;;0.34;73.97
55347;BME280;41218;55.700;38.270;2023-02-04T07:10:42;99684.84;;;0.43;73.86
55347;BME280;41218;55.700;38.270;2023-02-04T07:15:45;99679.00;;;0.49;74.01
55347;BME280;41218;55.700;38.270;2023-02-04T07:20:46;99693.47;;;0.58;73.94
55347;BME280;41218;55.700;38.270;2023-02-04T07:25:47;99676.56;;;0.62;73.56
55347;BME280;41218;55.700;38.270;2023-02-04T07:30:48;99686.22;;;0.68;74.10
55347;BME280;41218;55.700;38.270;2023-02-04T07:35:48;99700.19;;;0.75;74.02
55347;BME280;41218;55.700;38.270;2023-02-04T07:40:49;99704.41;;;0.81;74.07
55347;BME280;41218;55.700;38.270;2023-02-04T07:45:49;99710.75;;;0.90;74.11
55347;BME280;41218;55.700;38.270;2023-02-04T07:50:50;99711.75;;;0.94;74.04
55347;BME280;41218;55.700;38.270;2023-02-04T07:55:50;99719.19;;;1.03;73.64
55347;BME280;41218;55.700;38.270;2023-02-04T08:00:51;99716.16;;;1.04;73.89
55347;BME280;41218;55.700;38.270;2023-02-04T08:05:52;99720.88;;;1.12;73.86
55347;BME280;41218;55.700;38.270;2023-02-04T08:10:52;99723.47;;;1.17;73.74
55347;BME280;41218;55.700;38.270;2023-02-04T08:15:53;99729.59;;;1.23;73.85
55347;BME280;41218;55.700;38.270;2023-02-04T08:20:53;99735.84;;;1.24;73.79
55347;BME280;41218;55.700;38.270;2023-02-04T08:25:54;99746.19;;;1.35;73.87
55347;BME280;41218;55.700;38.270;2023-02-04T08:30:54;99741.25;;;1.37;73.86
55347;BME280;41218;55.700;38.270;2023-02-04T08:35:55;99750.16;;;1.52;73.63
55347;BME280;41218;55.700;38.270;2023-02-04T08:40:55;99744.91;;;1.55;73.49
55347;BME280;41218;55.700;38.270;2023-02-04T08:45:56;99759.59;;;1.68;73.65
55347;BME280;41218;55.700;38.270;2023-02-04T08:50:56;99755.63;;;1.74;73.59
55347;BME280;41218;55.700;38.270;2023-02-04T08:55:57;99769.81;;;1.85;73.51
55347;BME280;41218;55.700;38.270;2023-02-04T09:00:57;99768.88;;;1.90;73.61
55347;BME280;41218;55.700;38.270;2023-02-04T09:05:58;99754.75;;;1.88;73.35
55347;BME280;41218;55.700;38.270;2023-02-04T09:10:58;99763.34;;;2.04;73.29
55347;BME280;41218;55.700;38.270;2023-02-04T09:15:59;99759.81;;;2.03;72.79
55347;BME280;41218;55.700;38.270;2023-02-04T09:21:00;99765.28;;;2.03;72.97
55347;BME280;41218;55.700;38.270;2023-02-04T09:26:01;99781.66;;;2.12;72.80
55347;BME280;41218;55.700;38.270;2023-02-04T09:31:03;99778.63;;;2.13;72.60
55347;BME280;41218;55.700;38.270;2023-02-04T09:36:05;99781.09;;;2.24;72.78
55347;BME280;41218;55.700;38.270;2023-02-04T09:41:07;99774.66;;;2.19;72.00
55347;BME280;41218;55.700;38.270;2023-02-04T09:46:20;99790.44;;;2.31;72.04
55347;BME280;41218;55.700;38.270;2023-02-04T09:51:25;99787.38;;;2.33;71.89
55347;BME280;41218;55.700;38.270;2023-02-04T09:56:26;99780.63;;;2.30;72.07
55347;BME280;41218;55.700;38.270;2023-02-04T10:01:27;99797.69;;;2.36;72.04
55347;BME280;41218;55.700;38.270;2023-02-04T10:06:28;99797.69;;;2.36;72.03
55347;BME280;41218;55.700;38.270;2023-02-04T10:11:31;99809.84;;;2.30;71.80
55347;BME280;41218;55.700;38.270;2023-02-04T10:16:34;99802.72;;;2.20;72.01
55347;BME280;41218;55.700;38.270;2023-02-04T10:21:38;99801.06;;;2.10;71.73
55347;BME280;41218;55.700;38.270;2023-02-04T10:26:41;99811.66;;;2.12;71.80
55347;BME280;41218;55.700;38.270;2023-02-04T10:31:44;99820.28;;;2.05;71.93
55347;BME280;41218;55.700;38.270;2023-02-04T10:36:47;99826.34;;;2.02;72.11
55347;BME280;41218;55.700;38.270;2023-02-04T10:41:54;99829.03;;;1.93;72.21
55347;BME280;41218;55.700;38.270;2023-02-04T10:47:16;99827.53;;;1.87;72.59
55347;BME280;41218;55.700;38.270;2023-02-04T10:52:19;99840.63;;;1.99;72.48
55347;BME280;41218;55.700;38.270;2023-02-04T10:57:26;99844.94;;;2.00;72.19
55347;BME280;41218;55.700;38.270;2023-02-04T11:07:52;99838.94;;;1.89;72.38
55347;BME280;41218;55.700;38.270;2023-02-04T11:18:12;99858.88;;;1.98;72.63
55347;BME280;41218;55.700;38.270;2023-02-04T11:28:25;99861.59;;;1.98;72.63
55347;BME280;41218;55.700;38.270;2023-02-04T11:33:37;99865.06;;;1.90;72.54
55347;BME280;41218;55.700;38.270;2023-02-04T11:38:38;99852.69;;;1.84;72.65
55347;BME280;41218;55.700;38.270;2023-02-04T11:43:39;99872.94;;;1.92;72.28
55347;BME280;41218;55.700;38.270;2023-02-04T11:48:39;99871.25;;;1.82;72.42
55347;BME280;41218;55.700;38.270;2023-02-04T11:53:40;99876.81;;;1.91;72.67
55347;BME280;41218;55.700;38.270;2023-02-04T11:58:41;99880.69;;;1.98;72.68
55347;BME280;41218;55.700;38.270;2023-02-04T12:03:48;99889.44;;;2.09;72.74
55347;BME280;41218;55.700;38.270;2023-02-04T12:08:49;99899.41;;;2.14;72.06
55347;BME280;41218;55.700;38.270;2023-02-04T12:13:53;99898.91;;;2.12;72.51
55347;BME280;41218;55.700;38.270;2023-02-04T12:18:53;99897.78;;;2.13;72.76
55347;BME280;41218;55.700;38.270;2023-02-04T12:23:54;99906.97;;;2.17;72.79
55347;BME280;41218;55.700;38.270;2023-02-04T12:28:55;99905.16;;;2.12;72.28
55347;BME280;41218;55.700;38.270;2023-02-04T12:33:56;99926.78;;;2.09;71.96
55347;BME280;41218;55.700;38.270;2023-02-04T12:38:56;99929.84;;;2.07;72.26
55347;BME280;41218;55.700;38.270;2023-02-04T12:44:00;99934.31;;;2.03;72.21
55347;BME280;41218;55.700;38.270;2023-02-04T12:49:00;99946.31;;;2.02;72.28
55347;BME280;41218;55.700;38.270;2023-02-04T12:54:01;99945.44;;;1.93;72.48
55347;BME280;41218;55.700;38.270;2023-02-04T12:59:01;99945.25;;;1.89;72.42
55347;BME280;41218;55.700;38.270;2023-02-04T13:04:02;99952.72;;;1.84;72.36
55347;BME280;41218;55.700;38.270;2023-02-04T13:09:02;99966.16;;;1.80;72.18
55347;BME280;41218;55.700;38.270;2023-02-04T13:14:03;99940.78;;;1.57;72.36
55347;BME280;41218;55.700;38.270;2023-02-04T13:19:03;99961.56;;;1.67;72.54
55347;BME280;41218;55.700;38.270;2023-02-04T13:24:05;99971.53;;;1.71;72.76
55347;BME280;41218;55.700;38.270;2023-02-04T13:29:05;99977.91;;;1.67;72.57
55347;BME280;41218;55.700;38.270;2023-02-04T13:34:06;99976.69;;;1.59;72.68
55347;BME280;41218;55.700;38.270;2023-02-04T13:39:06;99982.94;;;1.59;72.79
55347;BME280;41218;55.700;38.270;2023-02-04T13:44:07;99988.69;;;1.58;72.75
55347;BME280;41218;55.700;38.270;2023-02-04T13:49:08;99993.75;;;1.51;72.81
55347;BME280;41218;55.700;38.270;2023-02-04T13:54:08;99996.56;;;1.46;73.07
55347;BME280;41218;55.700;38.270;2023-02-04T13:59:09;99998.78;;;1.44;72.77
55347;BME280;41218;55.700;38.270;2023-02-04T14:04:09;100011.09;;;1.41;72.72
55347;BME280;41218;55.700;38.270;2023-02-04T14:09:10;99999.91;;;1.29;72.90
55347;BME280;41218;55.700;38.270;2023-02-04T14:14:12;100007.16;;;1.33;72.50
55347;BME280;41218;55.700;38.270;2023-02-04T14:19:12;100021.25;;;1.22;72.68
55347;BME280;41218;55.700;38.270;2023-02-04T14:24:14;100024.88;;;1.17;72.68
55347;BME280;41218;55.700;38.270;2023-02-04T14:29:16;100042.84;;;1.18;72.89
55347;BME280;41218;55.700;38.270;2023-02-04T14:34:17;100039.81;;;1.19;72.83
55347;BME280;41218;55.700;38.270;2023-02-04T14:39:18;100043.72;;;1.13;72.97
55347;BME280;41218;55.700;38.270;2023-02-04T14:44:18;100051.72;;;1.10;72.95
55347;BME280;41218;55.700;38.270;2023-02-04T14:49:19;100056.53;;;1.13;72.97
55347;BME280;41218;55.700;38.270;2023-02-04T14:54:20;100063.56;;;1.00;72.58
55347;BME280;41218;55.700;38.270;2023-02-04T14:59:21;100065.28;;;0.96;72.84
55347;BME280;41218;55.700;38.270;2023-02-04T15:04:21;100069.19;;;0.90;72.80
55347;BME280;41218;55.700;38.270;2023-02-04T15:09:22;100063.31;;;0.83;73.15
55347;BME280;41218;55.700;38.270;2023-02-04T15:14:23;100082.06;;;0.84;73.27
55347;BME280;41218;55.700;38.270;2023-02-04T15:19:23;100067.72;;;0.78;73.25
55347;BME280;41218;55.700;38.270;2023-02-04T15:24:24;100083.16;;;0.83;73.08
55347;BME280;41218;55.700;38.270;2023-02-04T15:29:26;100092.72;;;0.80;73.14
55347;BME280;41218;55.700;38.270;2023-02-04T15:34:27;100086.03;;;0.73;73.14
55347;BME280;41218;55.700;38.270;2023-02-04T15:39:31;100101.78;;;0.76;73.44
55347;BME280;41218;55.700;38.270;2023-02-04T15:44:31;100106.50;;;0.70;73.52
55347;BME280;41218;55.700;38.270;2023-02-04T15:49:32;100104.56;;;0.71;73.45
55347;BME280;41218;55.700;38.270;2023-02-04T15:54:33;100110.00;;;0.71;73.80
55347;BME280;41218;55.700;38.270;2023-02-04T15:59:33;100119.53;;;0.73;73.52
55347;BME280;41218;55.700;38.270;2023-02-04T16:04:34;100112.22;;;0.69;73.84
55347;BME280;41218;55.700;38.270;2023-02-04T16:09:34;100113.63;;;0.66;73.81
55347;BME280;41218;55.700;38.270;2023-02-04T16:14:35;100120.47;;;0.64;73.63
55347;BME280;41218;55.700;38.270;2023-02-04T16:19:35;100125.13;;;0.63;73.70
55347;BME280;41218;55.700;38.270;2023-02-04T16:24:36;100132.66;;;0.66;73.97
55347;BME280;41218;55.700;38.270;2023-02-04T16:29:37;100145.91;;;0.73;73.79
55347;BME280;41218;55.700;38.270;2023-02-04T16:34:38;100144.69;;;0.65;73.54
55347;BME280;41218;55.700;38.270;2023-02-04T16:39:38;100150.91;;;0.66;73.77
55347;BME280;41218;55.700;38.270;2023-02-04T16:44:39;100162.53;;;0.71;73.77
55347;BME280;41218;55.700;38.270;2023-02-04T16:49:40;100158.28;;;0.65;74.03
55347;BME280;41218;55.700;38.270;2023-02-04T16:54:40;100156.34;;;0.66;73.62
55347;BME280;41218;55.700;38.270;2023-02-04T16:59:41;100158.84;;;0.62;73.80
55347;BME280;41218;55.700;38.270;2023-02-04T17:04:41;100174.88;;;0.64;73.96
55347;BME280;41218;55.700;38.270;2023-02-04T17:09:42;100161.66;;;0.57;74.18
55347;BME280;41218;55.700;38.270;2023-02-04T17:14:43;100175.97;;;0.63;74.28
55347;BME280;41218;55.700;38.270;2023-02-04T17:19:43;100179.00;;;0.61;73.94
55347;BME280;41218;55.700;38.270;2023-02-04T17:24:44;100186.84;;;0.63;74.26
55347;BME280;41218;55.700;38.270;2023-02-04T17:29:44;100198.19;;;0.70;74.19
55347;BME280;41218;55.700;38.270;2023-02-04T17:34:45;100196.78;;;0.72;74.49
55347;BME280;41218;55.700;38.270;2023-02-04T17:39:45;100202.25;;;0.72;74.06
55347;BME280;41218;55.700;38.270;2023-02-04T17:44:46;100203.88;;;0.73;74.68
55347;BME280;41218;55.700;38.270;2023-02-04T17:49:47;100202.47;;;0.76;74.28
55347;BME280;41218;55.700;38.270;2023-02-04T17:54:47;100209.00;;;0.75;74.20
55347;BME280;41218;55.700;38.270;2023-02-04T17:59:48;100204.97;;;0.72;74.11
55347;BME280;41218;55.700;38.270;2023-02-04T18:04:49;100209.00;;;0.75;74.29
55347;BME280;41218;55.700;38.270;2023-02-04T18:09:49;100208.47;;;0.73;74.50
55347;BME280;41218;55.700;38.270;2023-02-04T18:14:50;100218.28;;;0.74;74.26
55347;BME280;41218;55.700;38.270;2023-02-04T18:19:51;100226.72;;;0.72;74.05
55347;BME280;41218;55.700;38.270;2023-02-04T18:24:52;100220.25;;;0.68;74.46
55347;BME280;41218;55.700;38.270;2023-02-04T18:29:53;100235.13;;;0.76;74.29
55347;BME280;41218;55.700;38.270;2023-02-04T18:34:55;100229.44;;;0.72;74.31
55347;BME280;41218;55.700;38.270;2023-02-04T18:50:32;100240.34;;;0.72;74.37
55347;BME280;41218;55.700;38.270;2023-02-04T18:55:38;100239.28;;;0.68;74.39
55347;BME280;41218;55.700;38.270;2023-02-04T19:00:39;100257.78;;;0.71;74.51
55347;BME280;41218;55.700;38.270;2023-02-04T19:05:46;100258.34;;;0.68;74.42
55347;BME280;41218;55.700;38.270;2023-02-04T19:10:52;100265.97;;;0.66;74.53
55347;BME280;41218;55.700;38.270;2023-02-04T19:15:59;100278.44;;;0.72;74.67
55347;BME280;41218;55.700;38.270;2023-02-04T19:26:31;100271.94;;;0.68;74.41
55347;BME280;41218;55.700;38.270;2023-02-04T19:31:32;100274.66;;;0.68;74.32
55347;BME280;41218;55.700;38.270;2023-02-04T19:36:37;100287.38;;;0.73;74.34
55347;BME280;41218;55.700;38.270;2023-02-04T19:41:43;100292.84;;;0.73;74.50
55347;BME280;41218;55.700;38.270;2023-02-04T19:46:45;100281.75;;;0.69;74.29
55347;BME280;41218;55.700;38.270;2023-02-04T19:51:50;100287.75;;;0.66;74.43
55347;BME280;41218;55.700;38.270;2023-02-04T19:56:53;100300.19;;;0.72;74.29
55347;BME280;41218;55.700;38.270;2023-02-04T20:07:33;100312.25;;;0.66;74.54
55347;BME280;41218;55.700;38.270;2023-02-04T20:12:37;100312.00;;;0.63;74.36
55347;BME280;41218;55.700;38.270;2023-02-04T20:17:44;100322.03;;;0.67;74.69
55347;BME280;41218;55.700;38.270;2023-02-04T20:27:52;100327.16;;;0.69;74.68
55347;BME280;41218;55.700;38.270;2023-02-04T20:33:12;100329.38;;;0.67;74.57
55347;BME280;41218;55.700;38.270;2023-02-04T20:38:18;100333.44;;;0.69;74.48
55347;BME280;41218;55.700;38.270;2023-02-04T20:43:20;100336.97;;;0.70;74.36
55347;BME280;41218;55.700;38.270;2023-02-04T20:53:46;100340.56;;;0.65;74.50
55347;BME280;41218;55.700;38.270;2023-02-04T20:58:50;100334.34;;;0.59;74.05
55347;BME280;41218;55.700;38.270;2023-02-04T21:03:50;100343.03;;;0.62;74.33
55347;BME280;41218;55.700;38.270;2023-02-04T21:08:52;100336.91;;;0.51;73.99
55347;BME280;41218;55.700;38.270;2023-02-04T21:13:53;100331.50;;;0.46;74.13
55347;BME280;41218;55.700;38.270;2023-02-04T21:18:54;100347.78;;;0.51;74.73
55347;BME280;41218;55.700;38.270;2023-02-04T21:23:54;100345.88;;;0.51;75.00
55347;BME280;41218;55.700;38.270;2023-02-04T21:28:55;100345.06;;;0.51;74.85
55347;BME280;41218;55.700;38.270;2023-02-04T21:33:56;100353.50;;;0.49;74.71
55347;BME280;41218;55.700;38.270;2023-02-04T21:38:56;100364.91;;;0.51;74.63
55347;BME280;41218;55.700;38.270;2023-02-04T21:43:57;100378.25;;;0.48;74.90
55347;BME280;41218;55.700;38.270;2023-02-04T21:48:57;100378.50;;;0.51;74.68
55347;BME280;41218;55.700;38.270;2023-02-04T21:53:58;100376.06;;;0.50;74.72
55347;BME280;41218;55.700;38.270;2023-02-04T21:58:59;100386.09;;;0.54;74.73
55347;BME280;41218;55.700;38.270;2023-02-04T22:04:00;100382.91;;;0.47;74.57
55347;BME280;41218;55.700;38.270;2023-02-04T22:09:01;100385.09;;;0.45;74.62
55347;BME280;41218;55.700;38.270;2023-02-04T22:14:01;100394.09;;;0.40;74.60
55347;BME280;41218;55.700;38.270;2023-02-04T22:19:02;100399.78;;;0.44;74.81
55347;BME280;41218;55.700;38.270;2023-02-04T22:24:02;100413.06;;;0.51;75.16
55347;BME280;41218;55.700;38.270;2023-02-04T22:29:03;100418.25;;;0.47;74.83
55347;BME280;41218;55.700;38.270;2023-02-04T22:34:04;100424.84;;;0.41;74.58
55347;BME280;41218;55.700;38.270;2023-02-04T22:39:05;100423.72;;;0.42;74.74
55347;BME280;41218;55.700;38.270;2023-02-04T22:44:06;100434.34;;;0.44;74.63
55347;BME280;41218;55.700;38.270;2023-02-04T22:49:06;100428.72;;;0.35;74.32
55347;BME280;41218;55.700;38.270;2023-02-04T22:54:07;100436.03;;;0.34;74.33
55347;BME280;41218;55.700;38.270;2023-02-04T22:59:07;100443.97;;;0.31;74.08
55347;BME280;41218;55.700;38.270;2023-02-04T23:04:08;100441.84;;;0.23;74.45
55347;BME280;41218;55.700;38.270;2023-02-04T23:09:08;100454.69;;;0.12;74.35
55347;BME280;41218;55.700;38.270;2023-02-04T23:14:09;100452.34;;;0.00;74.72
55347;BME280;41218;55.700;38.270;2023-02-04T23:19:09;100455.59;;;0.02;75.06
55347;BME280;41218;55.700;38.270;2023-02-04T23:24:10;100466.75;;;0.01;74.56
55347;BME280;41218;55.700;38.270;2023-02-04T23:29:11;100464.03;;;0.01;74.92
55347;BME280;41218;55.700;38.270;2023-02-04T23:34:11;100464.03;;;0.01;74.14
55347;BME280;41218;55.700;38.270;2023-02-04T23:39:11;100469.22;;;-0.03;74.52
55347;BME280;41218;55.700;38.270;2023-02-04T23:44:12;100471.13;;;-0.09;74.53
55347;BME280;41218;55.700;38.270;2023-02-04T23:49:13;100477.16;;;-0.17;74.35
55347;BME280;41218;55.700;38.270;2023-02-04T23:54:14;100470.94;;;-0.23;74.36
55347;BME280;41218;55.700;38.270;2023-02-04T23:59:15;100469.97;;;-0.42;74.66
